首页
METAR-TAF:

METAR-TAF

机场 :

萊切, 意大利

纬度: 40-14N, 经度: 018-09E, 海拔: 48米

当前天气观测

该预报发布于1小时和3分钟前的13:55 UTC
风速7节,风向
温度 16°C
湿度 39%
气压 1025 hPa
能见度10公里或以上
1500米以下无云,无积雨云

METAR: LIBN 231355Z 36007KT CAVOK 16/02 Q1025 RMK SCT SCT200 VIS MIN 9999 WIND THR14 04008KT WIND THR32 36007KT BLU

时间: 15:58 (14:58 UTC)


TAF: 丢失

超过4000个机场的气象观测和天气预报(METAR&TAF报告)。

可查询的气象台以黄色和红色小点在地图上表示。

将鼠标移到小点上方,可查看气象台名称。

然后点击查看天气观测和预报。

如需切换地图:点击带黑十字的绿色按钮放大地图;点击带横线的绿色按钮缩小地图;或者点击绿色箭头查看邻近地区的地图。


METAR-TAF: